Fisk, Texas
Current Conditions -  °F | °C
As of 8:35 PM on Tuesday 21 Oct 2014 (Local Time) from KCOM Reporting Station
Clear Clear  
Wind Chill: 70°   Ceiling: Unl
Heat Index: 70°   Visibility: 10mi
Dew Point: 53°   Wind: 6mph
Humidity: 55%   Direction: 140°SE
Pressure: 30.06"   Gusts: NA
Location:  31.8779°N, 99.43°W
Report Text: KCOM 220135Z AUTO 14005KT 10SM CLR 21/12 A3006 RMK AO2 T02100117
Loading
Personal Weather Stations






























Interactive Weather Map
Tropical Storm Tracking
New forecast layout! Learn more

10-Day Weather Forecast

Advertisements
Track Severe Weather on mobile